sensor_id;sensor_type;location;lat;lon;timestamp;temperature;humidity
34698;DHT22;61391;50.922;6.928;2022-07-29T00:00:01;23.10;92.00
34698;DHT22;61391;50.922;6.928;2022-07-29T00:02:27;23.10;91.40
34698;DHT22;61391;50.922;6.928;2022-07-29T00:04:53;23.20;91.30
34698;DHT22;61391;50.922;6.928;2022-07-29T00:07:19;23.20;91.60
34698;DHT22;61391;50.922;6.928;2022-07-29T00:09:45;23.20;91.40
34698;DHT22;61391;50.922;6.928;2022-07-29T00:12:11;23.10;91.60
34698;DHT22;61391;50.922;6.928;2022-07-29T00:14:36;23.10;92.00
34698;DHT22;61391;50.922;6.928;2022-07-29T00:17:02;22.90;91.70
34698;DHT22;61391;50.922;6.928;2022-07-29T00:19:28;22.60;92.10
34698;DHT22;61391;50.922;6.928;2022-07-29T00:21:53;22.50;92.70
34698;DHT22;61391;50.922;6.928;2022-07-29T00:24:19;22.80;92.70
34698;DHT22;61391;50.922;6.928;2022-07-29T00:26:44;22.60;92.60
34698;DHT22;61391;50.922;6.928;2022-07-29T00:29:10;22.80;92.70
34698;DHT22;61391;50.922;6.928;2022-07-29T00:31:36;22.90;92.40
34698;DHT22;61391;50.922;6.928;2022-07-29T00:34:02;22.90;92.30
34698;DHT22;61391;50.922;6.928;2022-07-29T00:36:27;22.80;92.90
34698;DHT22;61391;50.922;6.928;2022-07-29T00:38:53;22.90;92.80
34698;DHT22;61391;50.922;6.928;2022-07-29T00:41:19;22.80;92.60
34698;DHT22;61391;50.922;6.928;2022-07-29T00:43:45;22.80;92.60
34698;DHT22;61391;50.922;6.928;2022-07-29T00:46:11;22.70;92.70
34698;DHT22;61391;50.922;6.928;2022-07-29T00:48:37;22.80;93.00
34698;DHT22;61391;50.922;6.928;2022-07-29T00:51:04;22.70;92.60
34698;DHT22;61391;50.922;6.928;2022-07-29T00:53:31;22.70;92.80
34698;DHT22;61391;50.922;6.928;2022-07-29T00:55:57;22.70;93.10
34698;DHT22;61391;50.922;6.928;2022-07-29T00:58:24;22.60;93.20
34698;DHT22;61391;50.922;6.928;2022-07-29T01:00:51;22.40;93.70
34698;DHT22;61391;50.922;6.928;2022-07-29T01:03:17;22.20;94.30
34698;DHT22;61391;50.922;6.928;2022-07-29T01:05:44;22.20;94.10
34698;DHT22;61391;50.922;6.928;2022-07-29T01:08:12;22.20;93.90
34698;DHT22;61391;50.922;6.928;2022-07-29T01:10:40;22.30;93.60
34698;DHT22;61391;50.922;6.928;2022-07-29T01:13:06;22.30;94.70
34698;DHT22;61391;50.922;6.928;2022-07-29T01:15:40;22.30;94.30
34698;DHT22;61391;50.922;6.928;2022-07-29T01:18:11;22.50;94.80
34698;DHT22;61391;50.922;6.928;2022-07-29T01:23:39;22.20;94.90
34698;DHT22;61391;50.922;6.928;2022-07-29T01:26:29;22.20;94.90
34698;DHT22;61391;50.922;6.928;2022-07-29T01:31:42;22.60;95.00
34698;DHT22;61391;50.922;6.928;2022-07-29T01:34:11;22.70;94.30
34698;DHT22;61391;50.922;6.928;2022-07-29T01:36:55;22.50;94.40
34698;DHT22;61391;50.922;6.928;2022-07-29T01:39:35;22.10;94.20
34698;DHT22;61391;50.922;6.928;2022-07-29T01:44:48;22.00;95.60
34698;DHT22;61391;50.922;6.928;2022-07-29T01:47:20;21.90;93.50
34698;DHT22;61391;50.922;6.928;2022-07-29T01:49:51;21.80;93.80
34698;DHT22;61391;50.922;6.928;2022-07-29T01:52:43;21.80;93.80
34698;DHT22;61391;50.922;6.928;2022-07-29T01:55:13;21.90;95.00
34698;DHT22;61391;50.922;6.928;2022-07-29T01:57:43;22.00;94.60
34698;DHT22;61391;50.922;6.928;2022-07-29T02:00:10;22.10;95.30
34698;DHT22;61391;50.922;6.928;2022-07-29T02:02:39;22.50;94.70
34698;DHT22;61391;50.922;6.928;2022-07-29T02:05:08;22.70;94.50
34698;DHT22;61391;50.922;6.928;2022-07-29T02:07:37;22.60;94.40
34698;DHT22;61391;50.922;6.928;2022-07-29T02:10:04;22.50;93.40
34698;DHT22;61391;50.922;6.928;2022-07-29T02:12:31;22.00;93.70
34698;DHT22;61391;50.922;6.928;2022-07-29T02:15:01;21.50;94.70
34698;DHT22;61391;50.922;6.928;2022-07-29T02:17:55;21.30;95.40
34698;DHT22;61391;50.922;6.928;2022-07-29T02:22:59;21.40;97.40
34698;DHT22;61391;50.922;6.928;2022-07-29T02:25:26;21.90;96.80
34698;DHT22;61391;50.922;6.928;2022-07-29T02:27:53;22.30;96.40
34698;DHT22;61391;50.922;6.928;2022-07-29T02:30:21;22.40;95.40
34698;DHT22;61391;50.922;6.928;2022-07-29T02:32:48;22.40;93.60
34698;DHT22;61391;50.922;6.928;2022-07-29T02:35:15;22.30;94.50
34698;DHT22;61391;50.922;6.928;2022-07-29T02:37:43;22.10;93.80
34698;DHT22;61391;50.922;6.928;2022-07-29T02:40:11;21.90;94.60
34698;DHT22;61391;50.922;6.928;2022-07-29T02:42:42;21.90;95.30
34698;DHT22;61391;50.922;6.928;2022-07-29T02:45:09;21.80;96.80
34698;DHT22;61391;50.922;6.928;2022-07-29T02:47:43;22.10;95.90
34698;DHT22;61391;50.922;6.928;2022-07-29T02:50:21;22.40;94.90
34698;DHT22;61391;50.922;6.928;2022-07-29T02:52:58;22.60;95.00
34698;DHT22;61391;50.922;6.928;2022-07-29T02:55:34;22.60;95.20
34698;DHT22;61391;50.922;6.928;2022-07-29T03:00:38;22.50;95.40
34698;DHT22;61391;50.922;6.928;2022-07-29T03:03:11;22.40;96.10
34698;DHT22;61391;50.922;6.928;2022-07-29T03:05:37;22.30;96.70
34698;DHT22;61391;50.922;6.928;2022-07-29T03:08:06;22.10;98.00
34698;DHT22;61391;50.922;6.928;2022-07-29T03:10:34;21.90;98.60
34698;DHT22;61391;50.922;6.928;2022-07-29T03:13:00;21.70;99.00
34698;DHT22;61391;50.922;6.928;2022-07-29T03:15:27;21.40;99.90
34698;DHT22;61391;50.922;6.928;2022-07-29T03:17:53;21.30;99.90
34698;DHT22;61391;50.922;6.928;2022-07-29T03:20:21;21.10;99.90
34698;DHT22;61391;50.922;6.928;2022-07-29T03:22:47;21.20;99.90
34698;DHT22;61391;50.922;6.928;2022-07-29T03:25:14;21.50;99.90
34698;DHT22;61391;50.922;6.928;2022-07-29T03:27:41;21.50;99.90
34698;DHT22;61391;50.922;6.928;2022-07-29T03:30:08;21.60;99.90
34698;DHT22;61391;50.922;6.928;2022-07-29T03:32:34;21.50;99.90
34698;DHT22;61391;50.922;6.928;2022-07-29T03:35:00;21.50;99.90
34698;DHT22;61391;50.922;6.928;2022-07-29T03:37:26;21.50;99.90
34698;DHT22;61391;50.922;6.928;2022-07-29T03:39:54;21.40;99.90
34698;DHT22;61391;50.922;6.928;2022-07-29T03:42:24;21.50;99.90
34698;DHT22;61391;50.922;6.928;2022-07-29T03:44:52;21.50;99.90
34698;DHT22;61391;50.922;6.928;2022-07-29T03:47:23;21.30;99.90
34698;DHT22;61391;50.922;6.928;2022-07-29T03:49:53;21.20;99.90
34698;DHT22;61391;50.922;6.928;2022-07-29T03:52:20;21.30;99.90
34698;DHT22;61391;50.922;6.928;2022-07-29T03:54:46;21.30;99.90
34698;DHT22;61391;50.922;6.928;2022-07-29T03:57:13;21.30;99.90
34698;DHT22;61391;50.922;6.928;2022-07-29T03:59:40;21.30;99.90
34698;DHT22;61391;50.922;6.928;2022-07-29T04:02:09;21.30;99.90
34698;DHT22;61391;50.922;6.928;2022-07-29T04:04:36;21.30;99.90
34698;DHT22;61391;50.922;6.928;2022-07-29T04:07:03;20.90;99.90
34698;DHT22;61391;50.922;6.928;2022-07-29T04:09:29;21.00;99.90
34698;DHT22;61391;50.922;6.928;2022-07-29T04:11:55;21.30;99.90
34698;DHT22;61391;50.922;6.928;2022-07-29T04:14:21;21.40;99.90
34698;DHT22;61391;50.922;6.928;2022-07-29T04:16:47;21.10;99.90
34698;DHT22;61391;50.922;6.928;2022-07-29T04:19:12;21.10;99.90
34698;DHT22;61391;50.922;6.928;2022-07-29T04:21:41;21.20;99.90
34698;DHT22;61391;50.922;6.928;2022-07-29T04:24:07;21.00;99.90
34698;DHT22;61391;50.922;6.928;2022-07-29T04:26:33;20.90;99.90
34698;DHT22;61391;50.922;6.928;2022-07-29T04:28:59;20.90;99.90
34698;DHT22;61391;50.922;6.928;2022-07-29T04:31:25;20.80;99.90
34698;DHT22;61391;50.922;6.928;2022-07-29T04:33:50;20.80;99.90
34698;DHT22;61391;50.922;6.928;2022-07-29T04:36:16;20.50;99.90
34698;DHT22;61391;50.922;6.928;2022-07-29T04:38:42;20.70;99.90
34698;DHT22;61391;50.922;6.928;2022-07-29T04:41:08;20.80;99.90
34698;DHT22;61391;50.922;6.928;2022-07-29T04:43:34;21.00;99.90
34698;DHT22;61391;50.922;6.928;2022-07-29T04:46:01;21.20;99.90
34698;DHT22;61391;50.922;6.928;2022-07-29T04:48:28;21.00;99.90
34698;DHT22;61391;50.922;6.928;2022-07-29T04:50:53;20.70;99.90
34698;DHT22;61391;50.922;6.928;2022-07-29T04:53:19;20.70;99.90
34698;DHT22;61391;50.922;6.928;2022-07-29T04:55:44;20.80;99.90
34698;DHT22;61391;50.922;6.928;2022-07-29T04:58:11;20.90;99.90
34698;DHT22;61391;50.922;6.928;2022-07-29T05:00:36;21.00;99.90
34698;DHT22;61391;50.922;6.928;2022-07-29T05:03:03;20.90;99.90
34698;DHT22;61391;50.922;6.928;2022-07-29T05:05:28;20.90;99.90
34698;DHT22;61391;50.922;6.928;2022-07-29T05:07:54;20.90;99.90
34698;DHT22;61391;50.922;6.928;2022-07-29T05:10:20;21.10;99.90
34698;DHT22;61391;50.922;6.928;2022-07-29T05:12:46;21.30;99.90
34698;DHT22;61391;50.922;6.928;2022-07-29T05:15:12;21.40;99.90
34698;DHT22;61391;50.922;6.928;2022-07-29T05:17:38;21.40;99.90
34698;DHT22;61391;50.922;6.928;2022-07-29T05:20:05;21.20;99.90
34698;DHT22;61391;50.922;6.928;2022-07-29T05:22:31;21.20;99.90
34698;DHT22;61391;50.922;6.928;2022-07-29T05:24:57;21.40;99.90
34698;DHT22;61391;50.922;6.928;2022-07-29T05:27:23;21.40;99.90
34698;DHT22;61391;50.922;6.928;2022-07-29T05:29:49;21.50;99.90
34698;DHT22;61391;50.922;6.928;2022-07-29T05:32:14;21.60;99.90
34698;DHT22;61391;50.922;6.928;2022-07-29T05:34:41;21.80;99.90
34698;DHT22;61391;50.922;6.928;2022-07-29T05:37:06;21.80;99.90
34698;DHT22;61391;50.922;6.928;2022-07-29T05:39:32;21.50;99.90
34698;DHT22;61391;50.922;6.928;2022-07-29T05:41:58;21.50;99.90
34698;DHT22;61391;50.922;6.928;2022-07-29T05:44:23;21.60;99.90
34698;DHT22;61391;50.922;6.928;2022-07-29T05:46:49;21.50;99.90
34698;DHT22;61391;50.922;6.928;2022-07-29T05:49:15;21.80;99.90
34698;DHT22;61391;50.922;6.928;2022-07-29T05:51:40;21.80;99.90
34698;DHT22;61391;50.922;6.928;2022-07-29T05:54:06;21.70;99.90
34698;DHT22;61391;50.922;6.928;2022-07-29T05:56:32;21.80;99.90
34698;DHT22;61391;50.922;6.928;2022-07-29T05:58:57;22.00;99.90
34698;DHT22;61391;50.922;6.928;2022-07-29T06:01:24;22.00;99.90
34698;DHT22;61391;50.922;6.928;2022-07-29T06:03:49;22.10;99.90
34698;DHT22;61391;50.922;6.928;2022-07-29T06:06:15;22.10;99.90
34698;DHT22;61391;50.922;6.928;2022-07-29T06:08:41;22.30;99.90
34698;DHT22;61391;50.922;6.928;2022-07-29T06:11:07;22.40;99.90
34698;DHT22;61391;50.922;6.928;2022-07-29T06:13:34;22.30;99.90
34698;DHT22;61391;50.922;6.928;2022-07-29T06:15:59;22.20;99.90
34698;DHT22;61391;50.922;6.928;2022-07-29T06:18:25;22.20;99.90
34698;DHT22;61391;50.922;6.928;2022-07-29T06:20:51;22.20;99.90
34698;DHT22;61391;50.922;6.928;2022-07-29T06:23:18;22.10;99.90
34698;DHT22;61391;50.922;6.928;2022-07-29T06:25:45;22.10;99.90
34698;DHT22;61391;50.922;6.928;2022-07-29T06:28:10;22.20;99.90
34698;DHT22;61391;50.922;6.928;2022-07-29T06:30:39;22.10;99.90
34698;DHT22;61391;50.922;6.928;2022-07-29T06:33:05;22.00;99.90
34698;DHT22;61391;50.922;6.928;2022-07-29T06:35:33;22.00;99.90
34698;DHT22;61391;50.922;6.928;2022-07-29T06:38:00;22.00;99.90
34698;DHT22;61391;50.922;6.928;2022-07-29T06:40:26;22.00;99.90
34698;DHT22;61391;50.922;6.928;2022-07-29T06:43:13;21.90;99.90
34698;DHT22;61391;50.922;6.928;2022-07-29T06:45:39;21.90;99.90
34698;DHT22;61391;50.922;6.928;2022-07-29T06:48:06;21.90;99.90
34698;DHT22;61391;50.922;6.928;2022-07-29T06:50:32;22.00;99.90
34698;DHT22;61391;50.922;6.928;2022-07-29T06:52:57;22.00;99.90
34698;DHT22;61391;50.922;6.928;2022-07-29T06:55:23;22.00;99.90
34698;DHT22;61391;50.922;6.928;2022-07-29T06:57:49;22.00;99.90
34698;DHT22;61391;50.922;6.928;2022-07-29T07:00:16;22.00;99.90
34698;DHT22;61391;50.922;6.928;2022-07-29T07:02:41;21.60;99.90
34698;DHT22;61391;50.922;6.928;2022-07-29T07:05:07;21.70;99.90
34698;DHT22;61391;50.922;6.928;2022-07-29T07:07:33;21.60;99.90
34698;DHT22;61391;50.922;6.928;2022-07-29T07:09:59;21.50;99.90
34698;DHT22;61391;50.922;6.928;2022-07-29T07:12:24;21.60;99.90
34698;DHT22;61391;50.922;6.928;2022-07-29T07:14:50;21.70;99.90
34698;DHT22;61391;50.922;6.928;2022-07-29T07:17:16;21.70;99.90
34698;DHT22;61391;50.922;6.928;2022-07-29T07:19:41;21.60;99.90
34698;DHT22;61391;50.922;6.928;2022-07-29T07:22:07;21.80;99.90
34698;DHT22;61391;50.922;6.928;2022-07-29T07:24:34;21.60;99.90
34698;DHT22;61391;50.922;6.928;2022-07-29T07:27:00;21.60;99.90
34698;DHT22;61391;50.922;6.928;2022-07-29T07:29:25;21.80;99.90
34698;DHT22;61391;50.922;6.928;2022-07-29T07:31:51;21.70;99.90
34698;DHT22;61391;50.922;6.928;2022-07-29T07:34:18;21.80;99.90
34698;DHT22;61391;50.922;6.928;2022-07-29T07:36:44;21.70;99.90
34698;DHT22;61391;50.922;6.928;2022-07-29T07:39:09;21.80;99.90
34698;DHT22;61391;50.922;6.928;2022-07-29T07:41:35;21.80;99.90
34698;DHT22;61391;50.922;6.928;2022-07-29T07:44:01;21.50;99.90
34698;DHT22;61391;50.922;6.928;2022-07-29T07:46:27;21.50;99.90
34698;DHT22;61391;50.922;6.928;2022-07-29T07:48:52;21.30;99.90
34698;DHT22;61391;50.922;6.928;2022-07-29T07:51:18;21.00;99.90
34698;DHT22;61391;50.922;6.928;2022-07-29T07:53:44;20.90;99.90
34698;DHT22;61391;50.922;6.928;2022-07-29T07:56:10;20.90;99.90
34698;DHT22;61391;50.922;6.928;2022-07-29T07:58:36;20.90;99.90
34698;DHT22;61391;50.922;6.928;2022-07-29T08:01:02;20.80;99.90
34698;DHT22;61391;50.922;6.928;2022-07-29T08:03:27;20.90;99.90
34698;DHT22;61391;50.922;6.928;2022-07-29T08:05:53;20.70;99.90
34698;DHT22;61391;50.922;6.928;2022-07-29T08:08:19;20.80;99.90
34698;DHT22;61391;50.922;6.928;2022-07-29T08:10:46;20.80;99.90
34698;DHT22;61391;50.922;6.928;2022-07-29T08:13:20;20.80;99.90
34698;DHT22;61391;50.922;6.928;2022-07-29T08:15:46;21.00;99.90
34698;DHT22;61391;50.922;6.928;2022-07-29T08:18:13;21.20;99.90
34698;DHT22;61391;50.922;6.928;2022-07-29T08:20:39;21.10;99.90
34698;DHT22;61391;50.922;6.928;2022-07-29T08:23:06;21.20;99.90
34698;DHT22;61391;50.922;6.928;2022-07-29T08:25:37;21.30;99.90
34698;DHT22;61391;50.922;6.928;2022-07-29T08:28:04;21.40;99.90
34698;DHT22;61391;50.922;6.928;2022-07-29T08:30:31;21.50;99.90
34698;DHT22;61391;50.922;6.928;2022-07-29T08:32:58;21.70;99.90
34698;DHT22;61391;50.922;6.928;2022-07-29T08:35:24;21.70;99.90
34698;DHT22;61391;50.922;6.928;2022-07-29T08:37:51;21.80;99.90
34698;DHT22;61391;50.922;6.928;2022-07-29T08:40:17;21.50;99.90
34698;DHT22;61391;50.922;6.928;2022-07-29T08:42:43;21.10;99.90
34698;DHT22;61391;50.922;6.928;2022-07-29T08:45:09;21.00;99.90
34698;DHT22;61391;50.922;6.928;2022-07-29T08:47:35;21.30;99.90
34698;DHT22;61391;50.922;6.928;2022-07-29T08:50:06;21.70;99.90
34698;DHT22;61391;50.922;6.928;2022-07-29T08:52:36;21.90;99.90
34698;DHT22;61391;50.922;6.928;2022-07-29T08:55:02;22.00;99.90
34698;DHT22;61391;50.922;6.928;2022-07-29T08:57:28;22.10;99.90
34698;DHT22;61391;50.922;6.928;2022-07-29T08:59:54;22.20;99.90
34698;DHT22;61391;50.922;6.928;2022-07-29T09:02:27;22.20;99.90
34698;DHT22;61391;50.922;6.928;2022-07-29T09:04:53;22.20;99.90
34698;DHT22;61391;50.922;6.928;2022-07-29T09:07:19;22.10;99.90
34698;DHT22;61391;50.922;6.928;2022-07-29T09:09:45;22.10;99.90
34698;DHT22;61391;50.922;6.928;2022-07-29T09:12:12;22.00;99.90
34698;DHT22;61391;50.922;6.928;2022-07-29T09:14:38;22.00;99.90
34698;DHT22;61391;50.922;6.928;2022-07-29T09:17:04;22.00;99.90
34698;DHT22;61391;50.922;6.928;2022-07-29T09:19:35;22.10;99.90
34698;DHT22;61391;50.922;6.928;2022-07-29T09:22:03;22.00;99.90
34698;DHT22;61391;50.922;6.928;2022-07-29T09:24:43;22.10;99.90
34698;DHT22;61391;50.922;6.928;2022-07-29T09:27:23;22.40;99.90
34698;DHT22;61391;50.922;6.928;2022-07-29T09:30:09;22.70;99.90
34698;DHT22;61391;50.922;6.928;2022-07-29T09:32:55;23.00;99.90
34698;DHT22;61391;50.922;6.928;2022-07-29T09:35:23;23.30;99.90
34698;DHT22;61391;50.922;6.928;2022-07-29T09:37:49;23.50;99.90
34698;DHT22;61391;50.922;6.928;2022-07-29T09:40:26;23.60;99.90
34698;DHT22;61391;50.922;6.928;2022-07-29T09:42:52;23.70;99.90
34698;DHT22;61391;50.922;6.928;2022-07-29T09:45:33;23.80;99.90
34698;DHT22;61391;50.922;6.928;2022-07-29T09:48:12;24.10;99.90
34698;DHT22;61391;50.922;6.928;2022-07-29T09:50:40;24.30;99.90
34698;DHT22;61391;50.922;6.928;2022-07-29T09:53:06;24.40;99.90
34698;DHT22;61391;50.922;6.928;2022-07-29T09:55:46;24.40;99.90
34698;DHT22;61391;50.922;6.928;2022-07-29T09:58:20;24.50;99.90
34698;DHT22;61391;50.922;6.928;2022-07-29T10:00:47;24.60;99.90
34698;DHT22;61391;50.922;6.928;2022-07-29T10:03:14;24.70;99.90
34698;DHT22;61391;50.922;6.928;2022-07-29T10:05:41;24.70;99.90
34698;DHT22;61391;50.922;6.928;2022-07-29T10:08:08;24.60;99.90
34698;DHT22;61391;50.922;6.928;2022-07-29T10:10:37;24.70;99.90
34698;DHT22;61391;50.922;6.928;2022-07-29T10:13:05;24.80;99.90
34698;DHT22;61391;50.922;6.928;2022-07-29T10:15:40;24.90;99.90
34698;DHT22;61391;50.922;6.928;2022-07-29T10:18:10;24.90;99.90
34698;DHT22;61391;50.922;6.928;2022-07-29T10:20:37;24.80;99.90
34698;DHT22;61391;50.922;6.928;2022-07-29T10:23:03;24.80;99.90
34698;DHT22;61391;50.922;6.928;2022-07-29T10:25:29;24.90;99.90
34698;DHT22;61391;50.922;6.928;2022-07-29T10:27:54;25.20;99.90
34698;DHT22;61391;50.922;6.928;2022-07-29T10:30:22;25.50;99.90
34698;DHT22;61391;50.922;6.928;2022-07-29T10:44:32;28.00;99.00
34698;DHT22;61391;50.922;6.928;2022-07-29T10:46:58;28.40;97.30
34698;DHT22;61391;50.922;6.928;2022-07-29T10:49:25;28.90;96.60
34698;DHT22;61391;50.922;6.928;2022-07-29T10:52:06;29.00;95.80
34698;DHT22;61391;50.922;6.928;2022-07-29T10:54:48;29.50;95.10
34698;DHT22;61391;50.922;6.928;2022-07-29T10:59:46;31.00;92.40
34698;DHT22;61391;50.922;6.928;2022-07-29T11:05:04;31.20;91.10
34698;DHT22;61391;50.922;6.928;2022-07-29T11:07:32;32.00;90.90
34698;DHT22;61391;50.922;6.928;2022-07-29T11:15:12;33.70;83.80
34698;DHT22;61391;50.922;6.928;2022-07-29T11:20:42;33.10;80.90
34698;DHT22;61391;50.922;6.928;2022-07-29T11:29:03;34.80;75.30
34698;DHT22;61391;50.922;6.928;2022-07-29T11:31:40;35.40;74.00
34698;DHT22;61391;50.922;6.928;2022-07-29T11:39:37;36.40;69.80
34698;DHT22;61391;50.922;6.928;2022-07-29T11:44:56;36.00;70.40
34698;DHT22;61391;50.922;6.928;2022-07-29T11:47:34;36.70;69.70
34698;DHT22;61391;50.922;6.928;2022-07-29T11:50:14;36.50;69.20
34698;DHT22;61391;50.922;6.928;2022-07-29T11:52:46;36.50;68.80
34698;DHT22;61391;50.922;6.928;2022-07-29T11:55:22;36.70;67.90
34698;DHT22;61391;50.922;6.928;2022-07-29T11:57:56;36.00;68.40
34698;DHT22;61391;50.922;6.928;2022-07-29T12:00:28;34.40;70.10
34698;DHT22;61391;50.922;6.928;2022-07-29T12:02:55;33.60;72.30
34698;DHT22;61391;50.922;6.928;2022-07-29T12:05:40;33.40;73.00
34698;DHT22;61391;50.922;6.928;2022-07-29T12:08:12;33.00;73.80
34698;DHT22;61391;50.922;6.928;2022-07-29T12:10:41;32.70;74.00
34698;DHT22;61391;50.922;6.928;2022-07-29T12:13:08;32.00;74.80
34698;DHT22;61391;50.922;6.928;2022-07-29T12:15:36;31.50;75.50
34698;DHT22;61391;50.922;6.928;2022-07-29T12:18:14;30.80;76.80
34698;DHT22;61391;50.922;6.928;2022-07-29T12:20:40;30.00;78.50
34698;DHT22;61391;50.922;6.928;2022-07-29T12:23:07;29.80;79.10
34698;DHT22;61391;50.922;6.928;2022-07-29T12:25:35;29.40;80.10
34698;DHT22;61391;50.922;6.928;2022-07-29T12:28:09;29.70;79.80
34698;DHT22;61391;50.922;6.928;2022-07-29T12:30:48;29.70;80.10
34698;DHT22;61391;50.922;6.928;2022-07-29T12:33:25;29.70;79.80
34698;DHT22;61391;50.922;6.928;2022-07-29T12:35:54;29.60;79.60
34698;DHT22;61391;50.922;6.928;2022-07-29T12:38:20;29.60;79.80
34698;DHT22;61391;50.922;6.928;2022-07-29T12:40:51;29.40;80.10
34698;DHT22;61391;50.922;6.928;2022-07-29T12:43:21;29.30;80.60
34698;DHT22;61391;50.922;6.928;2022-07-29T12:45:49;29.30;79.80
34698;DHT22;61391;50.922;6.928;2022-07-29T12:48:16;29.50;79.50
34698;DHT22;61391;50.922;6.928;2022-07-29T12:50:57;29.60;79.30
34698;DHT22;61391;50.922;6.928;2022-07-29T12:53:24;29.50;78.70
34698;DHT22;61391;50.922;6.928;2022-07-29T12:55:56;29.60;78.60
34698;DHT22;61391;50.922;6.928;2022-07-29T12:58:36;29.50;78.50
34698;DHT22;61391;50.922;6.928;2022-07-29T13:01:13;29.40;78.90
34698;DHT22;61391;50.922;6.928;2022-07-29T13:11:32;29.20;80.50
34698;DHT22;61391;50.922;6.928;2022-07-29T13:13:58;29.30;79.60
34698;DHT22;61391;50.922;6.928;2022-07-29T13:16:24;29.50;79.00
34698;DHT22;61391;50.922;6.928;2022-07-29T13:19:10;29.50;78.60
34698;DHT22;61391;50.922;6.928;2022-07-29T13:21:38;29.70;78.50
34698;DHT22;61391;50.922;6.928;2022-07-29T13:24:06;29.70;78.10
34698;DHT22;61391;50.922;6.928;2022-07-29T13:26:32;29.80;77.70
34698;DHT22;61391;50.922;6.928;2022-07-29T13:29:01;29.70;78.30
34698;DHT22;61391;50.922;6.928;2022-07-29T13:31:26;29.50;78.60
34698;DHT22;61391;50.922;6.928;2022-07-29T13:33:52;29.50;78.60
34698;DHT22;61391;50.922;6.928;2022-07-29T13:36:18;29.30;80.60
34698;DHT22;61391;50.922;6.928;2022-07-29T13:38:44;28.80;82.10
34698;DHT22;61391;50.922;6.928;2022-07-29T13:41:10;28.90;82.70
34698;DHT22;61391;50.922;6.928;2022-07-29T13:43:36;29.00;82.80
34698;DHT22;61391;50.922;6.928;2022-07-29T13:46:05;28.90;83.80
34698;DHT22;61391;50.922;6.928;2022-07-29T13:48:30;28.80;84.40
34698;DHT22;61391;50.922;6.928;2022-07-29T13:50:56;28.70;84.60
34698;DHT22;61391;50.922;6.928;2022-07-29T13:53:22;28.70;85.00
34698;DHT22;61391;50.922;6.928;2022-07-29T13:55:48;28.50;85.50
34698;DHT22;61391;50.922;6.928;2022-07-29T13:58:13;28.60;85.30
34698;DHT22;61391;50.922;6.928;2022-07-29T14:00:39;28.40;84.30
34698;DHT22;61391;50.922;6.928;2022-07-29T14:03:05;28.70;84.10
34698;DHT22;61391;50.922;6.928;2022-07-29T14:05:33;28.70;83.70
34698;DHT22;61391;50.922;6.928;2022-07-29T14:07:59;28.90;83.10
34698;DHT22;61391;50.922;6.928;2022-07-29T14:10:26;28.70;82.90
34698;DHT22;61391;50.922;6.928;2022-07-29T14:12:51;28.60;83.40
34698;DHT22;61391;50.922;6.928;2022-07-29T14:15:17;28.50;83.20
34698;DHT22;61391;50.922;6.928;2022-07-29T14:17:43;28.10;83.30
34698;DHT22;61391;50.922;6.928;2022-07-29T14:20:14;27.80;84.30
34698;DHT22;61391;50.922;6.928;2022-07-29T14:22:44;27.90;84.60
34698;DHT22;61391;50.922;6.928;2022-07-29T14:25:09;28.00;84.80
34698;DHT22;61391;50.922;6.928;2022-07-29T14:27:38;28.10;84.60
34698;DHT22;61391;50.922;6.928;2022-07-29T14:30:05;27.80;84.60
34698;DHT22;61391;50.922;6.928;2022-07-29T14:32:30;28.10;84.20
34698;DHT22;61391;50.922;6.928;2022-07-29T14:34:56;28.00;83.70
34698;DHT22;61391;50.922;6.928;2022-07-29T14:37:21;28.10;84.20
34698;DHT22;61391;50.922;6.928;2022-07-29T14:39:47;28.10;85.40
34698;DHT22;61391;50.922;6.928;2022-07-29T14:42:13;28.00;86.80
34698;DHT22;61391;50.922;6.928;2022-07-29T14:44:39;27.70;88.00
34698;DHT22;61391;50.922;6.928;2022-07-29T14:47:06;27.80;88.10
34698;DHT22;61391;50.922;6.928;2022-07-29T14:49:32;27.90;87.80
34698;DHT22;61391;50.922;6.928;2022-07-29T14:51:57;28.00;87.70
34698;DHT22;61391;50.922;6.928;2022-07-29T14:54:23;28.10;87.70
34698;DHT22;61391;50.922;6.928;2022-07-29T14:56:52;27.90;87.50
34698;DHT22;61391;50.922;6.928;2022-07-29T14:59:22;27.90;87.90
34698;DHT22;61391;50.922;6.928;2022-07-29T15:01:48;27.90;87.00
34698;DHT22;61391;50.922;6.928;2022-07-29T15:04:15;27.80;87.20
34698;DHT22;61391;50.922;6.928;2022-07-29T15:06:45;27.90;86.30
34698;DHT22;61391;50.922;6.928;2022-07-29T15:09:13;27.80;84.30
34698;DHT22;61391;50.922;6.928;2022-07-29T15:11:39;27.60;84.60
34698;DHT22;61391;50.922;6.928;2022-07-29T15:14:05;27.50;84.30
34698;DHT22;61391;50.922;6.928;2022-07-29T15:16:31;27.50;84.40
34698;DHT22;61391;50.922;6.928;2022-07-29T15:18:57;27.30;85.50
34698;DHT22;61391;50.922;6.928;2022-07-29T15:21:23;27.40;85.00
34698;DHT22;61391;50.922;6.928;2022-07-29T15:23:49;27.60;84.60
34698;DHT22;61391;50.922;6.928;2022-07-29T15:26:15;27.60;85.20
34698;DHT22;61391;50.922;6.928;2022-07-29T15:28:40;27.50;86.50
34698;DHT22;61391;50.922;6.928;2022-07-29T15:31:07;27.50;86.00
34698;DHT22;61391;50.922;6.928;2022-07-29T15:33:34;27.50;85.70
34698;DHT22;61391;50.922;6.928;2022-07-29T15:36:00;27.40;84.50
34698;DHT22;61391;50.922;6.928;2022-07-29T15:38:25;27.20;85.50
34698;DHT22;61391;50.922;6.928;2022-07-29T15:40:51;27.10;86.40
34698;DHT22;61391;50.922;6.928;2022-07-29T15:43:19;27.20;87.40
34698;DHT22;61391;50.922;6.928;2022-07-29T15:45:45;27.40;87.00
34698;DHT22;61391;50.922;6.928;2022-07-29T15:48:30;27.40;87.00
34698;DHT22;61391;50.922;6.928;2022-07-29T15:50:57;27.50;86.80
34698;DHT22;61391;50.922;6.928;2022-07-29T15:53:23;27.40;86.40
34698;DHT22;61391;50.922;6.928;2022-07-29T15:55:50;27.30;86.50
34698;DHT22;61391;50.922;6.928;2022-07-29T15:58:16;27.30;85.10
34698;DHT22;61391;50.922;6.928;2022-07-29T16:00:42;27.20;85.20
34698;DHT22;61391;50.922;6.928;2022-07-29T16:03:07;27.10;85.40
34698;DHT22;61391;50.922;6.928;2022-07-29T16:05:33;27.10;85.10
34698;DHT22;61391;50.922;6.928;2022-07-29T16:07:59;27.10;83.30
34698;DHT22;61391;50.922;6.928;2022-07-29T16:10:25;27.10;83.40
34698;DHT22;61391;50.922;6.928;2022-07-29T16:12:51;27.00;82.90
34698;DHT22;61391;50.922;6.928;2022-07-29T16:15:17;26.90;83.30
34698;DHT22;61391;50.922;6.928;2022-07-29T16:17:43;26.90;83.50
34698;DHT22;61391;50.922;6.928;2022-07-29T16:20:09;26.80;84.60
34698;DHT22;61391;50.922;6.928;2022-07-29T16:22:35;26.80;84.70
34698;DHT22;61391;50.922;6.928;2022-07-29T16:25:01;26.70;84.40
34698;DHT22;61391;50.922;6.928;2022-07-29T16:27:26;26.70;84.10
34698;DHT22;61391;50.922;6.928;2022-07-29T16:29:55;26.80;83.50
34698;DHT22;61391;50.922;6.928;2022-07-29T16:32:21;26.70;81.90
34698;DHT22;61391;50.922;6.928;2022-07-29T16:34:47;26.70;81.90